sensor_id;sensor_type;location;lat;lon;timestamp;P1;durP1;ratioP1;P2;durP2;ratioP2
8665;SDS011;4370;48.916;8.380;2024-03-23T00:53:02;7.20;;;4.77;;
8665;SDS011;4370;48.916;8.380;2024-03-23T00:55:28;5.23;;;3.93;;
8665;SDS011;4370;48.916;8.380;2024-03-23T00:57:54;5.20;;;4.70;;
8665;SDS011;4370;48.916;8.380;2024-03-23T01:00:20;6.13;;;4.10;;
8665;SDS011;4370;48.916;8.380;2024-03-23T01:02:46;5.40;;;4.60;;
8665;SDS011;4370;48.916;8.380;2024-03-23T01:05:12;6.73;;;4.37;;
8665;SDS011;4370;48.916;8.380;2024-03-23T01:07:38;5.73;;;4.00;;
8665;SDS011;4370;48.916;8.380;2024-03-23T01:10:05;8.60;;;4.60;;
8665;SDS011;4370;48.916;8.380;2024-03-23T01:12:31;5.90;;;4.30;;
8665;SDS011;4370;48.916;8.380;2024-03-23T01:14:57;4.60;;;3.70;;
8665;SDS011;4370;48.916;8.380;2024-03-23T01:17:23;6.87;;;5.03;;
8665;SDS011;4370;48.916;8.380;2024-03-23T01:19:49;5.23;;;4.50;;
8665;SDS011;4370;48.916;8.380;2024-03-23T01:22:15;5.70;;;4.53;;
8665;SDS011;4370;48.916;8.380;2024-03-23T01:24:41;6.27;;;4.20;;
8665;SDS011;4370;48.916;8.380;2024-03-23T01:27:08;4.67;;;3.83;;
8665;SDS011;4370;48.916;8.380;2024-03-23T01:29:34;6.07;;;4.00;;
8665;SDS011;4370;48.916;8.380;2024-03-23T01:32:00;6.00;;;3.97;;
8665;SDS011;4370;48.916;8.380;2024-03-23T01:34:26;4.90;;;3.70;;
8665;SDS011;4370;48.916;8.380;2024-03-23T01:36:53;4.37;;;3.73;;
8665;SDS011;4370;48.916;8.380;2024-03-23T01:39:19;5.30;;;3.63;;
8665;SDS011;4370;48.916;8.380;2024-03-23T01:41:44;4.40;;;3.40;;
8665;SDS011;4370;48.916;8.380;2024-03-23T01:44:10;4.87;;;3.53;;
8665;SDS011;4370;48.916;8.380;2024-03-23T01:46:37;6.23;;;3.70;;
8665;SDS011;4370;48.916;8.380;2024-03-23T01:49:04;3.93;;;3.43;;
8665;SDS011;4370;48.916;8.380;2024-03-23T01:51:30;4.07;;;3.10;;
8665;SDS011;4370;48.916;8.380;2024-03-23T01:53:56;4.27;;;3.20;;
8665;SDS011;4370;48.916;8.380;2024-03-23T01:56:22;3.70;;;3.17;;
8665;SDS011;4370;48.916;8.380;2024-03-23T01:58:48;5.47;;;4.00;;
8665;SDS011;4370;48.916;8.380;2024-03-23T02:01:15;4.20;;;3.30;;
8665;SDS011;4370;48.916;8.380;2024-03-23T02:03:41;4.73;;;3.40;;
8665;SDS011;4370;48.916;8.380;2024-03-23T02:06:07;3.53;;;3.23;;
8665;SDS011;4370;48.916;8.380;2024-03-23T02:08:33;3.17;;;2.80;;
8665;SDS011;4370;48.916;8.380;2024-03-23T02:11:00;3.87;;;2.90;;
8665;SDS011;4370;48.916;8.380;2024-03-23T02:13:26;6.50;;;3.37;;
8665;SDS011;4370;48.916;8.380;2024-03-23T02:15:52;4.33;;;3.33;;
8665;SDS011;4370;48.916;8.380;2024-03-23T02:18:18;5.10;;;3.10;;
8665;SDS011;4370;48.916;8.380;2024-03-23T02:20:44;4.83;;;2.93;;
8665;SDS011;4370;48.916;8.380;2024-03-23T02:23:13;4.70;;;3.43;;
8665;SDS011;4370;48.916;8.380;2024-03-23T02:25:39;3.30;;;2.90;;
8665;SDS011;4370;48.916;8.380;2024-03-23T02:28:06;4.80;;;2.83;;
8665;SDS011;4370;48.916;8.380;2024-03-23T02:30:32;2.80;;;2.50;;
8665;SDS011;4370;48.916;8.380;2024-03-23T02:32:58;3.57;;;2.63;;
8665;SDS011;4370;48.916;8.380;2024-03-23T02:35:24;5.53;;;3.30;;
8665;SDS011;4370;48.916;8.380;2024-03-23T02:37:50;4.30;;;2.80;;
8665;SDS011;4370;48.916;8.380;2024-03-23T02:40:16;4.03;;;3.00;;
8665;SDS011;4370;48.916;8.380;2024-03-23T02:42:42;4.37;;;2.77;;
8665;SDS011;4370;48.916;8.380;2024-03-23T02:45:08;5.27;;;2.90;;
8665;SDS011;4370;48.916;8.380;2024-03-23T02:47:34;5.13;;;3.00;;
8665;SDS011;4370;48.916;8.380;2024-03-23T02:50:00;5.07;;;2.97;;
8665;SDS011;4370;48.916;8.380;2024-03-23T02:52:26;4.03;;;2.70;;
8665;SDS011;4370;48.916;8.380;2024-03-23T02:54:52;3.73;;;2.90;;
8665;SDS011;4370;48.916;8.380;2024-03-23T02:57:18;5.00;;;2.67;;
8665;SDS011;4370;48.916;8.380;2024-03-23T02:59:44;4.67;;;3.03;;
8665;SDS011;4370;48.916;8.380;2024-03-23T03:02:11;4.13;;;2.57;;
8665;SDS011;4370;48.916;8.380;2024-03-23T03:04:37;5.43;;;3.03;;
8665;SDS011;4370;48.916;8.380;2024-03-23T03:07:03;4.17;;;2.97;;
8665;SDS011;4370;48.916;8.380;2024-03-23T03:09:29;6.53;;;3.60;;
8665;SDS011;4370;48.916;8.380;2024-03-23T03:11:55;5.40;;;3.13;;
8665;SDS011;4370;48.916;8.380;2024-03-23T03:14:21;4.57;;;3.00;;
8665;SDS011;4370;48.916;8.380;2024-03-23T03:16:47;4.97;;;3.27;;
8665;SDS011;4370;48.916;8.380;2024-03-23T03:19:13;5.80;;;3.30;;
8665;SDS011;4370;48.916;8.380;2024-03-23T03:21:41;3.50;;;2.63;;
8665;SDS011;4370;48.916;8.380;2024-03-23T03:24:07;5.53;;;3.10;;
8665;SDS011;4370;48.916;8.380;2024-03-23T03:26:33;5.40;;;3.10;;
8665;SDS011;4370;48.916;8.380;2024-03-23T03:28:59;3.73;;;2.90;;
8665;SDS011;4370;48.916;8.380;2024-03-23T03:31:25;4.67;;;3.50;;
8665;SDS011;4370;48.916;8.380;2024-03-23T03:33:51;5.57;;;3.23;;
8665;SDS011;4370;48.916;8.380;2024-03-23T03:36:17;3.23;;;2.70;;
8665;SDS011;4370;48.916;8.380;2024-03-23T03:38:43;3.87;;;2.80;;
8665;SDS011;4370;48.916;8.380;2024-03-23T03:41:09;5.63;;;3.00;;
8665;SDS011;4370;48.916;8.380;2024-03-23T03:43:35;3.97;;;2.40;;
8665;SDS011;4370;48.916;8.380;2024-03-23T03:46:01;6.33;;;3.57;;
8665;SDS011;4370;48.916;8.380;2024-03-23T03:48:28;6.03;;;3.73;;
8665;SDS011;4370;48.916;8.380;2024-03-23T03:50:54;3.90;;;3.27;;
8665;SDS011;4370;48.916;8.380;2024-03-23T03:53:20;8.33;;;4.97;;
8665;SDS011;4370;48.916;8.380;2024-03-23T03:55:46;6.77;;;5.17;;
8665;SDS011;4370;48.916;8.380;2024-03-23T03:58:12;8.17;;;5.93;;
8665;SDS011;4370;48.916;8.380;2024-03-23T04:00:38;15.20;;;9.50;;
8665;SDS011;4370;48.916;8.380;2024-03-23T04:03:04;13.20;;;9.07;;
8665;SDS011;4370;48.916;8.380;2024-03-23T04:05:30;16.30;;;9.50;;
8665;SDS011;4370;48.916;8.380;2024-03-23T04:07:57;16.20;;;9.23;;
8665;SDS011;4370;48.916;8.380;2024-03-23T04:10:23;11.20;;;8.20;;
8665;SDS011;4370;48.916;8.380;2024-03-23T04:12:51;13.67;;;9.97;;
8665;SDS011;4370;48.916;8.380;2024-03-23T04:15:18;15.00;;;9.47;;
8665;SDS011;4370;48.916;8.380;2024-03-23T04:17:44;13.13;;;9.10;;
8665;SDS011;4370;48.916;8.380;2024-03-23T04:20:10;15.10;;;10.80;;
8665;SDS011;4370;48.916;8.380;2024-03-23T04:22:38;14.83;;;9.93;;
8665;SDS011;4370;48.916;8.380;2024-03-23T04:25:05;15.07;;;9.50;;
8665;SDS011;4370;48.916;8.380;2024-03-23T04:27:35;18.13;;;10.67;;
8665;SDS011;4370;48.916;8.380;2024-03-23T04:30:02;16.87;;;11.03;;
8665;SDS011;4370;48.916;8.380;2024-03-23T04:32:29;12.10;;;9.13;;
8665;SDS011;4370;48.916;8.380;2024-03-23T04:34:56;13.87;;;9.50;;
8665;SDS011;4370;48.916;8.380;2024-03-23T04:37:22;16.97;;;8.47;;
8665;SDS011;4370;48.916;8.380;2024-03-23T04:39:48;15.57;;;9.67;;
8665;SDS011;4370;48.916;8.380;2024-03-23T04:42:14;11.67;;;8.47;;
8665;SDS011;4370;48.916;8.380;2024-03-23T04:44:41;11.43;;;8.93;;
8665;SDS011;4370;48.916;8.380;2024-03-23T04:47:07;12.80;;;9.23;;
8665;SDS011;4370;48.916;8.380;2024-03-23T04:49:33;14.30;;;8.23;;
8665;SDS011;4370;48.916;8.380;2024-03-23T04:52:01;13.77;;;8.70;;
8665;SDS011;4370;48.916;8.380;2024-03-23T04:54:27;10.83;;;8.30;;
8665;SDS011;4370;48.916;8.380;2024-03-23T04:56:53;9.87;;;7.83;;
8665;SDS011;4370;48.916;8.380;2024-03-23T04:59:19;10.43;;;8.00;;
8665;SDS011;4370;48.916;8.380;2024-03-23T05:01:45;10.83;;;7.67;;
8665;SDS011;4370;48.916;8.380;2024-03-23T05:04:12;9.33;;;7.50;;
8665;SDS011;4370;48.916;8.380;2024-03-23T05:06:38;11.03;;;7.77;;
8665;SDS011;4370;48.916;8.380;2024-03-23T05:09:04;8.57;;;6.30;;
8665;SDS011;4370;48.916;8.380;2024-03-23T05:11:32;8.43;;;6.20;;
8665;SDS011;4370;48.916;8.380;2024-03-23T05:13:58;8.03;;;6.10;;
8665;SDS011;4370;48.916;8.380;2024-03-23T05:16:24;8.47;;;6.23;;
8665;SDS011;4370;48.916;8.380;2024-03-23T05:18:51;6.90;;;5.10;;
8665;SDS011;4370;48.916;8.380;2024-03-23T05:21:17;7.40;;;4.40;;
8665;SDS011;4370;48.916;8.380;2024-03-23T05:23:43;4.93;;;3.60;;
8665;SDS011;4370;48.916;8.380;2024-03-23T05:26:09;3.70;;;2.80;;
8665;SDS011;4370;48.916;8.380;2024-03-23T05:28:35;2.80;;;2.40;;
8665;SDS011;4370;48.916;8.380;2024-03-23T05:31:01;4.13;;;2.10;;
8665;SDS011;4370;48.916;8.380;2024-03-23T05:33:27;2.50;;;1.90;;
8665;SDS011;4370;48.916;8.380;2024-03-23T05:35:57;2.20;;;1.47;;
8665;SDS011;4370;48.916;8.380;2024-03-23T05:38:23;1.63;;;1.30;;
8665;SDS011;4370;48.916;8.380;2024-03-23T05:40:53;1.33;;;1.23;;
8665;SDS011;4370;48.916;8.380;2024-03-23T05:43:19;1.43;;;1.20;;
8665;SDS011;4370;48.916;8.380;2024-03-23T05:45:45;1.20;;;1.03;;
8665;SDS011;4370;48.916;8.380;2024-03-23T05:48:11;0.90;;;0.90;;
8665;SDS011;4370;48.916;8.380;2024-03-23T05:50:37;1.53;;;1.20;;
8665;SDS011;4370;48.916;8.380;2024-03-23T05:53:04;1.07;;;1.00;;
8665;SDS011;4370;48.916;8.380;2024-03-23T05:55:30;1.10;;;1.00;;
8665;SDS011;4370;48.916;8.380;2024-03-23T05:57:57;0.90;;;0.90;;
8665;SDS011;4370;48.916;8.380;2024-03-23T06:00:23;0.80;;;0.80;;
8665;SDS011;4370;48.916;8.380;2024-03-23T06:02:51;0.90;;;0.90;;
8665;SDS011;4370;48.916;8.380;2024-03-23T06:05:17;1.17;;;1.10;;
8665;SDS011;4370;48.916;8.380;2024-03-23T06:07:43;0.90;;;0.90;;
8665;SDS011;4370;48.916;8.380;2024-03-23T06:10:09;1.93;;;1.10;;
8665;SDS011;4370;48.916;8.380;2024-03-23T06:12:35;1.20;;;1.10;;
8665;SDS011;4370;48.916;8.380;2024-03-23T06:15:01;1.20;;;1.10;;
8665;SDS011;4370;48.916;8.380;2024-03-23T06:17:27;1.13;;;1.03;;
8665;SDS011;4370;48.916;8.380;2024-03-23T06:19:53;2.37;;;1.10;;
8665;SDS011;4370;48.916;8.380;2024-03-23T06:22:19;1.10;;;1.00;;
8665;SDS011;4370;48.916;8.380;2024-03-23T06:24:45;1.07;;;1.03;;
8665;SDS011;4370;48.916;8.380;2024-03-23T06:27:11;1.33;;;1.23;;
8665;SDS011;4370;48.916;8.380;2024-03-23T06:29:37;1.67;;;1.10;;
8665;SDS011;4370;48.916;8.380;2024-03-23T06:32:03;1.07;;;1.07;;
8665;SDS011;4370;48.916;8.380;2024-03-23T06:34:29;1.30;;;1.20;;
8665;SDS011;4370;48.916;8.380;2024-03-23T06:36:55;1.20;;;1.10;;
8665;SDS011;4370;48.916;8.380;2024-03-23T06:39:21;1.73;;;1.20;;
8665;SDS011;4370;48.916;8.380;2024-03-23T06:41:54;0.90;;;0.90;;
8665;SDS011;4370;48.916;8.380;2024-03-23T06:44:20;1.50;;;1.20;;
8665;SDS011;4370;48.916;8.380;2024-03-23T06:46:46;1.10;;;1.00;;
8665;SDS011;4370;48.916;8.380;2024-03-23T06:49:14;3.90;;;0.90;;
8665;SDS011;4370;48.916;8.380;2024-03-23T06:51:40;1.20;;;1.10;;
8665;SDS011;4370;48.916;8.380;2024-03-23T06:54:06;0.97;;;0.87;;
8665;SDS011;4370;48.916;8.380;2024-03-23T06:56:32;0.80;;;0.80;;
8665;SDS011;4370;48.916;8.380;2024-03-23T06:58:58;0.90;;;0.90;;
8665;SDS011;4370;48.916;8.380;2024-03-23T07:01:24;0.73;;;0.73;;
8665;SDS011;4370;48.916;8.380;2024-03-23T07:03:50;0.57;;;0.57;;
8665;SDS011;4370;48.916;8.380;2024-03-23T07:06:16;0.80;;;0.80;;
8665;SDS011;4370;48.916;8.380;2024-03-23T07:08:42;0.70;;;0.70;;
8665;SDS011;4370;48.916;8.380;2024-03-23T07:11:08;0.60;;;0.60;;
8665;SDS011;4370;48.916;8.380;2024-03-23T07:13:34;1.73;;;0.73;;
8665;SDS011;4370;48.916;8.380;2024-03-23T07:16:00;0.80;;;0.80;;
8665;SDS011;4370;48.916;8.380;2024-03-23T07:18:26;0.80;;;0.80;;
8665;SDS011;4370;48.916;8.380;2024-03-23T07:20:53;1.83;;;0.77;;
8665;SDS011;4370;48.916;8.380;2024-03-23T07:23:19;0.60;;;0.60;;
8665;SDS011;4370;48.916;8.380;2024-03-23T07:25:45;0.70;;;0.70;;
8665;SDS011;4370;48.916;8.380;2024-03-23T07:28:11;0.70;;;0.70;;
8665;SDS011;4370;48.916;8.380;2024-03-23T07:30:37;0.60;;;0.60;;
8665;SDS011;4370;48.916;8.380;2024-03-23T07:33:03;0.70;;;0.70;;
8665;SDS011;4370;48.916;8.380;2024-03-23T07:35:29;0.70;;;0.70;;
8665;SDS011;4370;48.916;8.380;2024-03-23T07:37:55;1.00;;;0.80;;
8665;SDS011;4370;48.916;8.380;2024-03-23T07:40:20;0.80;;;0.80;;
8665;SDS011;4370;48.916;8.380;2024-03-23T07:42:47;0.90;;;0.67;;
8665;SDS011;4370;48.916;8.380;2024-03-23T07:45:13;1.13;;;0.80;;
8665;SDS011;4370;48.916;8.380;2024-03-23T07:47:40;1.10;;;0.90;;
8665;SDS011;4370;48.916;8.380;2024-03-23T07:50:06;0.80;;;0.80;;
8665;SDS011;4370;48.916;8.380;2024-03-23T07:52:32;0.70;;;0.70;;
8665;SDS011;4370;48.916;8.380;2024-03-23T07:54:58;0.90;;;0.90;;
8665;SDS011;4370;48.916;8.380;2024-03-23T07:57:24;1.30;;;0.87;;
8665;SDS011;4370;48.916;8.380;2024-03-23T07:59:50;0.80;;;0.80;;
8665;SDS011;4370;48.916;8.380;2024-03-23T08:02:17;0.80;;;0.80;;
8665;SDS011;4370;48.916;8.380;2024-03-23T08:04:43;1.13;;;0.90;;
8665;SDS011;4370;48.916;8.380;2024-03-23T08:07:08;1.13;;;1.07;;
8665;SDS011;4370;48.916;8.380;2024-03-23T08:09:35;2.50;;;1.27;;
8665;SDS011;4370;48.916;8.380;2024-03-23T08:12:00;1.53;;;1.20;;
8665;SDS011;4370;48.916;8.380;2024-03-23T08:14:27;2.70;;;1.20;;
8665;SDS011;4370;48.916;8.380;2024-03-23T08:16:54;2.23;;;1.50;;
8665;SDS011;4370;48.916;8.380;2024-03-23T08:19:20;2.67;;;1.60;;
8665;SDS011;4370;48.916;8.380;2024-03-23T08:21:46;3.00;;;1.80;;
8665;SDS011;4370;48.916;8.380;2024-03-23T08:24:12;3.40;;;1.77;;
8665;SDS011;4370;48.916;8.380;2024-03-23T08:26:39;4.90;;;2.50;;
8665;SDS011;4370;48.916;8.380;2024-03-23T08:29:05;5.90;;;2.07;;
8665;SDS011;4370;48.916;8.380;2024-03-23T08:31:32;6.10;;;3.03;;
8665;SDS011;4370;48.916;8.380;2024-03-23T08:33:58;8.43;;;2.93;;
8665;SDS011;4370;48.916;8.380;2024-03-23T08:36:23;8.10;;;2.63;;
8665;SDS011;4370;48.916;8.380;2024-03-23T08:38:49;7.20;;;2.43;;
8665;SDS011;4370;48.916;8.380;2024-03-23T08:41:18;6.63;;;2.50;;
8665;SDS011;4370;48.916;8.380;2024-03-23T08:43:44;10.57;;;2.80;;
8665;SDS011;4370;48.916;8.380;2024-03-23T08:46:14;8.23;;;2.83;;
8665;SDS011;4370;48.916;8.380;2024-03-23T08:48:41;8.73;;;3.00;;
8665;SDS011;4370;48.916;8.380;2024-03-23T08:51:08;6.70;;;3.20;;
8665;SDS011;4370;48.916;8.380;2024-03-23T08:53:35;7.67;;;3.10;;
8665;SDS011;4370;48.916;8.380;2024-03-23T08:56:01;9.40;;;3.07;;
8665;SDS011;4370;48.916;8.380;2024-03-23T08:58:27;8.60;;;2.97;;
8665;SDS011;4370;48.916;8.380;2024-03-23T09:00:54;9.03;;;2.80;;
8665;SDS011;4370;48.916;8.380;2024-03-23T09:03:23;9.40;;;3.50;;
8665;SDS011;4370;48.916;8.380;2024-03-23T09:05:49;6.63;;;3.00;;
8665;SDS011;4370;48.916;8.380;2024-03-23T09:08:15;6.23;;;2.80;;
8665;SDS011;4370;48.916;8.380;2024-03-23T09:10:41;5.93;;;2.97;;
8665;SDS011;4370;48.916;8.380;2024-03-23T09:13:08;6.67;;;2.70;;
8665;SDS011;4370;48.916;8.380;2024-03-23T09:15:34;7.40;;;2.80;;
8665;SDS011;4370;48.916;8.380;2024-03-23T09:18:01;6.13;;;3.03;;
8665;SDS011;4370;48.916;8.380;2024-03-23T09:20:27;7.43;;;2.40;;
8665;SDS011;4370;48.916;8.380;2024-03-23T09:22:53;9.27;;;2.73;;
8665;SDS011;4370;48.916;8.380;2024-03-23T09:25:18;7.90;;;2.87;;
8665;SDS011;4370;48.916;8.380;2024-03-23T09:27:47;9.90;;;2.87;;
8665;SDS011;4370;48.916;8.380;2024-03-23T09:30:14;8.87;;;2.83;;
8665;SDS011;4370;48.916;8.380;2024-03-23T09:32:42;6.07;;;3.03;;
8665;SDS011;4370;48.916;8.380;2024-03-23T09:35:08;7.97;;;2.97;;
8665;SDS011;4370;48.916;8.380;2024-03-23T09:37:34;7.17;;;2.73;;
8665;SDS011;4370;48.916;8.380;2024-03-23T09:40:00;5.23;;;2.30;;
8665;SDS011;4370;48.916;8.380;2024-03-23T09:42:26;6.77;;;2.60;;
8665;SDS011;4370;48.916;8.380;2024-03-23T09:44:52;8.93;;;2.90;;
8665;SDS011;4370;48.916;8.380;2024-03-23T09:47:18;7.10;;;2.70;;
8665;SDS011;4370;48.916;8.380;2024-03-23T09:49:44;5.83;;;2.63;;
8665;SDS011;4370;48.916;8.380;2024-03-23T09:52:11;9.27;;;3.10;;
8665;SDS011;4370;48.916;8.380;2024-03-23T09:54:36;9.63;;;3.20;;
8665;SDS011;4370;48.916;8.380;2024-03-23T09:57:02;9.30;;;3.73;;
8665;SDS011;4370;48.916;8.380;2024-03-23T09:59:29;11.43;;;4.20;;
8665;SDS011;4370;48.916;8.380;2024-03-23T10:01:55;11.80;;;4.30;;
8665;SDS011;4370;48.916;8.380;2024-03-23T10:04:37;14.30;;;4.40;;
8665;SDS011;4370;48.916;8.380;2024-03-23T10:07:13;7.63;;;4.00;;
8665;SDS011;4370;48.916;8.380;2024-03-23T10:09:40;7.77;;;3.90;;
8665;SDS011;4370;48.916;8.380;2024-03-23T10:12:10;7.33;;;3.60;;
8665;SDS011;4370;48.916;8.380;2024-03-23T10:14:37;7.77;;;3.63;;
8665;SDS011;4370;48.916;8.380;2024-03-23T10:19:44;5.60;;;2.90;;
8665;SDS011;4370;48.916;8.380;2024-03-23T10:22:14;5.17;;;3.00;;
8665;SDS011;4370;48.916;8.380;2024-03-23T10:24:41;7.70;;;3.43;;
8665;SDS011;4370;48.916;8.380;2024-03-23T10:27:07;5.30;;;3.30;;
8665;SDS011;4370;48.916;8.380;2024-03-23T10:29:33;5.40;;;3.10;;
8665;SDS011;4370;48.916;8.380;2024-03-23T10:32:09;4.37;;;2.70;;
8665;SDS011;4370;48.916;8.380;2024-03-23T10:34:35;5.63;;;2.87;;
8665;SDS011;4370;48.916;8.380;2024-03-23T10:37:02;3.87;;;2.63;;
8665;SDS011;4370;48.916;8.380;2024-03-23T10:39:35;7.97;;;2.90;;
8665;SDS011;4370;48.916;8.380;2024-03-23T10:42:05;5.10;;;2.67;;
8665;SDS011;4370;48.916;8.380;2024-03-23T10:44:32;5.30;;;2.70;;
8665;SDS011;4370;48.916;8.380;2024-03-23T10:46:58;6.77;;;2.77;;
8665;SDS011;4370;48.916;8.380;2024-03-23T10:49:34;3.93;;;2.33;;
8665;SDS011;4370;48.916;8.380;2024-03-23T10:52:01;4.50;;;2.90;;
8665;SDS011;4370;48.916;8.380;2024-03-23T10:54:27;6.07;;;2.90;;
8665;SDS011;4370;48.916;8.380;2024-03-23T10:56:59;3.87;;;2.70;;
8665;SDS011;4370;48.916;8.380;2024-03-23T10:59:27;5.47;;;2.80;;
8665;SDS011;4370;48.916;8.380;2024-03-23T11:01:55;6.57;;;2.73;;
8665;SDS011;4370;48.916;8.380;2024-03-23T11:04:39;3.40;;;2.13;;
8665;SDS011;4370;48.916;8.380;2024-03-23T11:09:52;5.87;;;2.73;;
8665;SDS011;4370;48.916;8.380;2024-03-23T11:14:48;8.10;;;2.93;;
8665;SDS011;4370;48.916;8.380;2024-03-23T11:17:21;4.80;;;2.57;;
8665;SDS011;4370;48.916;8.380;2024-03-23T11:19:54;5.33;;;2.77;;
8665;SDS011;4370;48.916;8.380;2024-03-23T11:25:15;5.93;;;2.70;;
8665;SDS011;4370;48.916;8.380;2024-03-23T11:27:42;3.60;;;2.30;;
8665;SDS011;4370;48.916;8.380;2024-03-23T11:30:12;6.63;;;2.23;;
8665;SDS011;4370;48.916;8.380;2024-03-23T11:32:39;8.30;;;2.50;;
8665;SDS011;4370;48.916;8.380;2024-03-23T11:35:05;5.40;;;2.60;;
8665;SDS011;4370;48.916;8.380;2024-03-23T11:37:31;5.53;;;2.40;;
8665;SDS011;4370;48.916;8.380;2024-03-23T11:39:57;4.93;;;2.40;;
8665;SDS011;4370;48.916;8.380;2024-03-23T11:42:23;4.50;;;2.13;;
8665;SDS011;4370;48.916;8.380;2024-03-23T11:44:49;3.87;;;2.33;;
8665;SDS011;4370;48.916;8.380;2024-03-23T11:47:15;5.30;;;2.50;;
8665;SDS011;4370;48.916;8.380;2024-03-23T11:49:41;4.83;;;2.30;;
8665;SDS011;4370;48.916;8.380;2024-03-23T11:52:07;5.93;;;2.70;;
8665;SDS011;4370;48.916;8.380;2024-03-23T11:54:33;5.80;;;2.60;;
8665;SDS011;4370;48.916;8.380;2024-03-23T11:57:00;7.73;;;2.27;;
8665;SDS011;4370;48.916;8.380;2024-03-23T11:59:39;5.43;;;2.50;;
8665;SDS011;4370;48.916;8.380;2024-03-23T12:02:07;5.03;;;2.43;;
8665;SDS011;4370;48.916;8.380;2024-03-23T12:04:33;6.23;;;2.17;;
8665;SDS011;4370;48.916;8.380;2024-03-23T12:07:11;8.70;;;2.37;;
8665;SDS011;4370;48.916;8.380;2024-03-23T12:09:40;8.47;;;2.53;;
8665;SDS011;4370;48.916;8.380;2024-03-23T12:12:13;7.93;;;2.87;;
8665;SDS011;4370;48.916;8.380;2024-03-23T12:14:46;7.20;;;2.67;;
8665;SDS011;4370;48.916;8.380;2024-03-23T12:17:30;8.53;;;2.97;;
8665;SDS011;4370;48.916;8.380;2024-03-23T12:19:56;9.40;;;3.43;;
8665;SDS011;4370;48.916;8.380;2024-03-23T12:22:22;9.03;;;2.90;;
8665;SDS011;4370;48.916;8.380;2024-03-23T12:24:48;10.30;;;2.90;;
8665;SDS011;4370;48.916;8.380;2024-03-23T12:27:14;11.23;;;3.57;;
8665;SDS011;4370;48.916;8.380;2024-03-23T12:29:40;8.97;;;3.30;;
8665;SDS011;4370;48.916;8.380;2024-03-23T12:32:08;6.93;;;2.70;;
8665;SDS011;4370;48.916;8.380;2024-03-23T12:34:34;7.27;;;2.77;;
8665;SDS011;4370;48.916;8.380;2024-03-23T12:37:00;6.27;;;2.17;;
8665;SDS011;4370;48.916;8.380;2024-03-23T12:39:26;9.83;;;2.87;;
8665;SDS011;4370;48.916;8.380;2024-03-23T12:41:52;7.57;;;2.70;;
8665;SDS011;4370;48.916;8.380;2024-03-23T12:44:18;9.87;;;2.83;;
8665;SDS011;4370;48.916;8.380;2024-03-23T12:46:44;7.77;;;2.73;;
8665;SDS011;4370;48.916;8.380;2024-03-23T12:49:11;7.73;;;3.10;;
8665;SDS011;4370;48.916;8.380;2024-03-23T12:51:37;7.67;;;2.30;;
8665;SDS011;4370;48.916;8.380;2024-03-23T12:54:12;4.70;;;2.03;;
8665;SDS011;4370;48.916;8.380;2024-03-23T12:56:38;3.60;;;1.63;;
8665;SDS011;4370;48.916;8.380;2024-03-23T12:59:04;4.37;;;1.47;;
8665;SDS011;4370;48.916;8.380;2024-03-23T13:01:30;5.93;;;1.40;;
8665;SDS011;4370;48.916;8.380;2024-03-23T13:03:56;5.43;;;1.60;;
8665;SDS011;4370;48.916;8.380;2024-03-23T13:06:24;3.23;;;1.27;;
8665;SDS011;4370;48.916;8.380;2024-03-23T13:08:49;3.37;;;1.20;;
8665;SDS011;4370;48.916;8.380;2024-03-23T13:11:16;3.10;;;1.00;;
8665;SDS011;4370;48.916;8.380;2024-03-23T13:13:43;3.90;;;1.20;;
8665;SDS011;4370;48.916;8.380;2024-03-23T13:16:09;2.70;;;1.10;;
8665;SDS011;4370;48.916;8.380;2024-03-23T13:18:35;3.63;;;1.30;;
8665;SDS011;4370;48.916;8.380;2024-03-23T13:21:01;1.97;;;0.97;;
8665;SDS011;4370;48.916;8.380;2024-03-23T13:23:27;4.33;;;1.00;;
8665;SDS011;4370;48.916;8.380;2024-03-23T13:25:54;3.23;;;1.20;;
8665;SDS011;4370;48.916;8.380;2024-03-23T13:28:20;4.53;;;1.40;;
8665;SDS011;4370;48.916;8.380;2024-03-23T13:30:58;1.97;;;1.17;;
8665;SDS011;4370;48.916;8.380;2024-03-23T13:33:28;4.77;;;1.63;;
8665;SDS011;4370;48.916;8.380;2024-03-23T13:35:54;3.77;;;1.20;;
8665;SDS011;4370;48.916;8.380;2024-03-23T13:38:21;4.50;;;1.43;;
8665;SDS011;4370;48.916;8.380;2024-03-23T13:43:15;2.87;;;1.30;;
8665;SDS011;4370;48.916;8.380;2024-03-23T13:45:41;2.30;;;1.10;;
8665;SDS011;4370;48.916;8.380;2024-03-23T13:48:07;1.70;;;0.97;;
8665;SDS011;4370;48.916;8.380;2024-03-23T13:50:33;4.97;;;1.30;;
8665;SDS011;4370;48.916;8.380;2024-03-23T13:52:59;1.80;;;0.97;;
8665;SDS011;4370;48.916;8.380;2024-03-23T13:55:26;1.43;;;1.00;;
8665;SDS011;4370;48.916;8.380;2024-03-23T13:57:51;2.73;;;1.37;;
8665;SDS011;4370;48.916;8.380;2024-03-23T14:00:18;2.93;;;1.10;;
8665;SDS011;4370;48.916;8.380;2024-03-23T14:02:45;2.57;;;0.90;;
8665;SDS011;4370;48.916;8.380;2024-03-23T14:05:11;3.10;;;1.23;;
8665;SDS011;4370;48.916;8.380;2024-03-23T14:07:37;4.97;;;1.10;;
8665;SDS011;4370;48.916;8.380;2024-03-23T14:10:03;3.63;;;0.80;;
8665;SDS011;4370;48.916;8.380;2024-03-23T14:12:31;2.67;;;1.10;;
8665;SDS011;4370;48.916;8.380;2024-03-23T14:14:57;3.70;;;1.10;;
8665;SDS011;4370;48.916;8.380;2024-03-23T14:17:23;1.73;;;1.20;;
8665;SDS011;4370;48.916;8.380;2024-03-23T14:19:51;5.17;;;1.50;;
8665;SDS011;4370;48.916;8.380;2024-03-23T14:22:16;4.47;;;1.43;;
8665;SDS011;4370;48.916;8.380;2024-03-23T14:24:44;2.97;;;1.43;;
8665;SDS011;4370;48.916;8.380;2024-03-23T14:27:10;4.40;;;1.40;;
8665;SDS011;4370;48.916;8.380;2024-03-23T14:29:36;2.33;;;1.20;;
8665;SDS011;4370;48.916;8.380;2024-03-23T14:32:02;4.20;;;1.10;;
8665;SDS011;4370;48.916;8.380;2024-03-23T14:34:28;1.50;;;1.10;;
8665;SDS011;4370;48.916;8.380;2024-03-23T14:36:54;3.03;;;1.20;;
8665;SDS011;4370;48.916;8.380;2024-03-23T14:39:23;3.27;;;1.30;;
8665;SDS011;4370;48.916;8.380;2024-03-23T14:41:52;4.47;;;1.10;;
8665;SDS011;4370;48.916;8.380;2024-03-23T14:44:18;2.60;;;1.00;;
8665;SDS011;4370;48.916;8.380;2024-03-23T14:46:43;2.00;;;0.93;;
8665;SDS011;4370;48.916;8.380;2024-03-23T14:49:14;2.30;;;0.83;;
8665;SDS011;4370;48.916;8.380;2024-03-23T14:51:41;1.83;;;0.80;;
8665;SDS011;4370;48.916;8.380;2024-03-23T14:54:07;1.53;;;1.00;;
8665;SDS011;4370;48.916;8.380;2024-03-23T14:56:33;1.10;;;1.00;;
8665;SDS011;4370;48.916;8.380;2024-03-23T14:58:59;1.43;;;0.90;;
8665;SDS011;4370;48.916;8.380;2024-03-23T15:01:25;3.70;;;1.37;;
8665;SDS011;4370;48.916;8.380;2024-03-23T15:03:51;3.37;;;1.47;;
8665;SDS011;4370;48.916;8.380;2024-03-23T15:06:18;2.43;;;1.30;;
8665;SDS011;4370;48.916;8.380;2024-03-23T15:08:44;1.60;;;1.27;;
8665;SDS011;4370;48.916;8.380;2024-03-23T15:11:10;2.27;;;1.10;;
8665;SDS011;4370;48.916;8.380;2024-03-23T15:13:37;2.17;;;1.00;;
8665;SDS011;4370;48.916;8.380;2024-03-23T15:16:03;1.27;;;1.00;;
8665;SDS011;4370;48.916;8.380;2024-03-23T15:18:31;4.83;;;1.53;;
8665;SDS011;4370;48.916;8.380;2024-03-23T15:20:58;1.83;;;1.30;;
8665;SDS011;4370;48.916;8.380;2024-03-23T15:23:28;1.23;;;1.00;;
8665;SDS011;4370;48.916;8.380;2024-03-23T15:28:20;1.57;;;1.10;;
8665;SDS011;4370;48.916;8.380;2024-03-23T15:30:46;3.97;;;1.20;;
8665;SDS011;4370;48.916;8.380;2024-03-23T15:33:12;2.10;;;1.10;;
8665;SDS011;4370;48.916;8.380;2024-03-23T15:35:38;2.73;;;1.20;;
8665;SDS011;4370;48.916;8.380;2024-03-23T15:38:04;3.20;;;1.20;;
8665;SDS011;4370;48.916;8.380;2024-03-23T15:40:30;2.10;;;1.37;;
8665;SDS011;4370;48.916;8.380;2024-03-23T15:42:56;4.73;;;1.60;;
8665;SDS011;4370;48.916;8.380;2024-03-23T15:45:22;3.10;;;1.20;;
8665;SDS011;4370;48.916;8.380;2024-03-23T15:47:48;2.43;;;1.30;;
8665;SDS011;4370;48.916;8.380;2024-03-23T15:50:14;3.27;;;1.27;;
8665;SDS011;4370;48.916;8.380;2024-03-23T15:52:40;3.30;;;1.20;;
8665;SDS011;4370;48.916;8.380;2024-03-23T15:55:06;3.10;;;1.30;;
8665;SDS011;4370;48.916;8.380;2024-03-23T15:57:33;2.30;;;1.20;;
8665;SDS011;4370;48.916;8.380;2024-03-23T15:59:59;2.47;;;1.10;;
8665;SDS011;4370;48.916;8.380;2024-03-23T16:02:25;1.60;;;1.00;;
8665;SDS011;4370;48.916;8.380;2024-03-23T16:04:52;2.63;;;0.87;;
8665;SDS011;4370;48.916;8.380;2024-03-23T16:07:18;2.37;;;0.97;;
8665;SDS011;4370;48.916;8.380;2024-03-23T16:09:44;1.03;;;0.80;;
8665;SDS011;4370;48.916;8.380;2024-03-23T16:12:10;2.73;;;0.90;;
8665;SDS011;4370;48.916;8.380;2024-03-23T16:14:36;1.73;;;1.00;;
8665;SDS011;4370;48.916;8.380;2024-03-23T16:17:02;2.67;;;1.17;;
8665;SDS011;4370;48.916;8.380;2024-03-23T16:19:28;4.23;;;1.23;;